Preview of NWS' New Version of Forecast
This preview is not operational and should not be used for support decisions.

Terminal Aerodrome Forecast (TAF)

Issued by National Weather Service (NWS)

                            
000
FTUS42 KMFL 260305 AAA
TAFMIA
TAF AMD
KMIA 260305Z 2603/2706 11009KT P6SM VCSH FEW015 SCT025 BKN100
      TEMPO 2603/2606 VRB11KT 6SM SHRA SCT015 BKN025
     FM260800 11004KT 6SM SHRA SCT025 OVC035
     FM261400 12013KT 6SM SHRA VCTS FEW007 SCT015 BKN025CB=